Storia di METAR DNKA · Kaduna Airport

Di seguito sono riportati i METAR degli ultimi giorni. Seleziona un anno per sfogliare i METAR più vecchi, dall'anno 2007 in poi.

1 dicembre 2022

Tempo Codice Tempo metereologico Temp. Vista Base nuvolosa Vento METAR/SPECI
20:00
V
29 °C 10 km+ - 030° 030° 8 kt METAR DNKA 011900Z 03008KT CAVOK 29/08 Q1013 NOSIG
19:00
V
29 °C 10 km+ - 340° 340° 6 kt METAR DNKA 011800Z 34006KT CAVOK 29/8 Q1013 NOSIG
15:00
V
32 °C 10 km+ - 090° 090° 8 kt METAR DNKA 011400Z 09008KT CAVOK 32/06 Q1011 NOSIG
08:00
V
18 °C 10 km+ - 090° 090° 6 kt METAR DNKA 010700Z 09006KT CAVOK 18/05 Q1014
07:00
V
18 °C 10 km+ - 080° 080° 2 kt METAR DNKA 010600Z 08002KT CAVOK 18/5 Q1014
06:00
V
18 °C 10 km+ - 050° 050° 2 kt METAR DNKA 010500Z 05002KT CAVOK 18/03 Q1013
05:00
V
19 °C 10 km+ - 080° 080° 5 kt METAR DNKA 010400Z 08005KT CAVOK 19/04 Q1013
00:00
V
23 °C 10 km+ - Var 000° 8 kt METAR DNKA 302300Z 70008KT CAVOK 23/07 Q1014 NOSIG

30 novembre 2022

Tempo Codice Tempo metereologico Temp. Vista Base nuvolosa Vento METAR/SPECI
23:00
V
23 °C 10 km+ - 060° 060° 9 kt METAR DNKA 302200Z 06009KT CAVOK 23/6 Q1015 NOSIG
22:00
V
25 °C 10 km+ - 070° 070° 9 kt METAR DNKA 302100Z 07009KT CAVOK 25/08 Q1015 NOSIG
21:00
V
26 °C 10 km+ - Var 000° 7 kt METAR DNKA 302000Z 50007KT CAVOK 26/08 Q1014 NOSIG
20:00
V
27 °C 10 km+ - Var 000° 8 kt METAR DNKA 301900Z 60008KT CAVOK 27/8 Q1014 NOSIG
19:00
V
27 °C 10 km+ - 050° 050° 7 kt METAR DNKA 301800Z 05007KT CAVOK 27/7 Q1013 NOSIG
18:00
V
28 °C 10 km+ - 030° 030° 6 kt METAR DNKA 301700Z 03006KT CAVOK 28/08 Q1012
17:00
V
30 °C 10 km+ - 060° 060° 5 kt METAR DNKA 301600Z 06005KT CAVOK 30/07 Q1011
16:00
V
31 °C 10 km+ - 030° 030° 4 kt METAR DNKA 301500Z 03004KT CAVOK 31/07 Q1011 NOSIG
15:00
V
31 °C 10 km+ - 300° 300° 6 kt METAR DNKA 301400Z 30006KT CAVOK 31/07 Q1011 NOSIG
14:00
V
31 °C 10 km+ - 040° 040° 11 kt METAR DNKA 301300Z 04011KT CAVOK 31/07 Q1012 NOSIG
13:00
V
30 °C 10 km+ - 040° 040° 7 kt METAR DNKA 301200Z 04007KT CAVOK 30/07 Q1013 NOSIG
12:00
V
29 °C 10 km+ - 060° 060° 10 kt METAR DNKA 301100Z 06010KT CAVOK 29/07 Q1014 NOSIG
11:00
V
27 °C 10 km+ - 070° 070° 11 kt METAR DNKA 301000Z 07011KT CAVOK 27/05 Q1015 NOSIG
10:00
V
26 °C 10 km+ - 070° 070° 11 kt METAR DNKA 300900Z 07011KT CAVOK 26/5 Q1015 NOSIG
09:00
V
23 °C 10 km+ - 070° 070° 13 kt METAR DNKA 300800Z 07013KT CAVOK 23/05 Q1015 NOSIG
08:00
V
18 °C 10 km+ - 030° 030° 4 kt METAR DNKA 300700Z 03004KT CAVOK 18/03 Q1014 NOSIG

29 novembre 2022

Tempo Codice Tempo metereologico Temp. Vista Base nuvolosa Vento METAR/SPECI
21:00
V
26 °C 10 km+ - 030° 030° 4 kt METAR DNKA 292000Z 03004KT CAVOK 26/05 Q1012
20:00
V
27 °C 10 km+ - 080° 080° 4 kt METAR DNKA 291900Z 08004KT CAVOK 27/05 Q1011
17:00
V
31 °C 10 km+ - 050° 050° 4 kt METAR DNKA 291600Z 05004KT CAVOK 31/06 Q1010 NOSIG
14:00
V
31 °C 10 km+ - 350° 350° 6 kt METAR DNKA 291300Z 35006KT CAVOK 31/06 Q1011
12:00
V
29 °C 10 km+ - 090° 090° 10 kt METAR DNKA 291100Z 09010KT CAVOK 29/05 Q1013

Noi e le terze parti seguiamo il tuo comportamento su internet con i cookie. Se continui, riteniamo che tu sia d'accordo con la nostra Politica sui cookie.